Time;durP1;ratioP1;P1;durP2;ratioP2;P2;SDS_P1;SDS_P2;PMS_P1;PMS_P2;Temp;Humidity;BMP_temperature;BMP_pressure;BME280_temperature;BME280_humidity;BME280_pressure;Samples;Min_cycle;Max_cycle;Signal;HPM_P1;HPM_P2
2023/12/25 00:01:46;;;;;;;4.43;1.73;;;12.90;99.90;;;;;;5036894;28;20045;-77
2023/12/25 00:04:12;;;;;;;4.13;1.08;;;12.90;99.90;;;;;;5035293;28;20028;-78
2023/12/25 00:06:38;;;;;;;6.70;1.20;;;12.90;99.90;;;;;;5035337;28;20033;-77
2023/12/25 00:09:03;;;;;;;3.75;1.38;;;12.80;99.90;;;;;;5033517;28;20517;-77
2023/12/25 00:11:29;;;;;;;3.80;1.17;;;12.80;99.90;;;;;;5033166;28;20021;-78
2023/12/25 00:13:55;;;;;;;3.88;1.63;;;12.80;99.90;;;;;;5031269;28;20029;-77
2023/12/25 00:16:24;;;;;;;3.60;1.10;;;12.80;99.90;;;;;;5033581;28;20033;-77
2023/12/25 00:18:50;;;;;;;2.97;1.15;;;12.80;99.90;;;;;;5038295;28;20032;-78
2023/12/25 00:21:16;;;;;;;2.83;1.33;;;12.90;99.90;;;;;;5034257;28;20045;-78
2023/12/25 00:23:41;;;;;;;6.20;1.30;;;12.90;99.90;;;;;;5037691;28;20045;-77
2023/12/25 00:26:08;;;;;;;2.63;1.05;;;12.90;99.90;;;;;;5032048;28;20029;-77
2023/12/25 00:28:33;;;;;;;6.00;1.00;;;12.90;99.90;;;;;;5034688;28;20048;-77
2023/12/25 00:30:59;;;;;;;3.97;1.00;;;12.90;99.90;;;;;;5033405;28;20486;-76
2023/12/25 00:33:25;;;;;;;3.00;1.50;;;12.90;99.90;;;;;;5036300;28;20433;-77
2023/12/25 00:35:51;;;;;;;3.50;0.80;;;12.80;99.90;;;;;;5036222;28;22559;-77
2023/12/25 00:38:16;;;;;;;3.85;1.08;;;12.90;99.90;;;;;;5036041;28;20036;-77
2023/12/25 00:40:42;;;;;;;3.85;0.90;;;12.80;99.90;;;;;;5036430;28;20041;-76
2023/12/25 00:43:08;;;;;;;3.17;1.30;;;12.90;99.90;;;;;;5033264;28;20056;-77
2023/12/25 00:45:34;;;;;;;4.88;1.00;;;12.90;99.90;;;;;;5031800;28;20044;-78
2023/12/25 00:48:00;;;;;;;3.67;0.93;;;12.90;99.90;;;;;;5035023;28;20466;-77
2023/12/25 00:50:26;;;;;;;6.55;1.45;;;12.90;99.90;;;;;;5034394;28;20985;-77
2023/12/25 00:52:51;;;;;;;5.65;1.10;;;13.00;99.90;;;;;;5033162;28;20036;-79
2023/12/25 00:55:17;;;;;;;3.45;0.90;;;12.90;99.90;;;;;;5035095;28;20497;-77
2023/12/25 00:57:43;;;;;;;2.65;0.80;;;12.90;99.90;;;;;;5035455;28;20483;-78
2023/12/25 01:00:09;;;;;;;3.17;1.10;;;12.90;99.90;;;;;;5031716;28;20471;-78
2023/12/25 01:02:35;;;;;;;4.93;1.45;;;12.90;99.90;;;;;;5032693;28;20041;-78
2023/12/25 01:05:02;;;;;;;7.32;1.73;;;12.90;99.90;;;;;;5030982;28;20069;-80
2023/12/25 01:07:28;;;;;;;1.50;1.13;;;12.90;99.90;;;;;;5033734;28;20028;-77
2023/12/25 01:09:54;;;;;;;2.53;1.20;;;12.90;99.90;;;;;;5036858;28;20025;-78
2023/12/25 01:12:19;;;;;;;2.33;1.08;;;13.00;99.90;;;;;;5034892;28;20115;-77
2023/12/25 01:14:46;;;;;;;4.55;1.30;;;13.00;99.90;;;;;;5035527;28;20105;-77
2023/12/25 01:17:12;;;;;;;3.28;1.15;;;13.00;99.90;;;;;;5032576;28;20033;-78
2023/12/25 01:19:37;;;;;;;2.45;0.95;;;13.00;99.90;;;;;;5034384;28;20076;-77
2023/12/25 01:22:04;;;;;;;5.85;1.27;;;12.90;99.90;;;;;;5033179;28;20075;-77
2023/12/25 01:24:29;;;;;;;2.60;1.02;;;13.00;99.90;;;;;;5033015;28;20103;-77
2023/12/25 01:26:55;;;;;;;2.05;0.90;;;12.90;99.90;;;;;;5033159;28;20096;-78
2023/12/25 01:29:21;;;;;;;3.55;0.80;;;12.90;99.90;;;;;;5035521;28;20025;-77
2023/12/25 01:31:46;;;;;;;3.30;1.00;;;12.90;99.90;;;;;;5037320;28;20124;-78
2023/12/25 01:34:12;;;;;;;5.18;1.48;;;12.90;99.90;;;;;;5032659;28;20041;-78
2023/12/25 01:36:40;;;;;;;1.55;0.80;;;13.00;99.90;;;;;;5038326;28;20103;-77
2023/12/25 01:39:06;;;;;;;3.28;1.67;;;12.90;99.90;;;;;;5034074;28;20029;-79
2023/12/25 01:41:32;;;;;;;1.70;0.95;;;13.00;99.90;;;;;;5030263;28;20033;-77
2023/12/25 01:43:57;;;;;;;2.65;0.88;;;13.00;99.90;;;;;;5034414;28;20021;-78
2023/12/25 01:46:24;;;;;;;1.75;0.70;;;13.00;99.90;;;;;;5034272;28;20025;-77
2023/12/25 01:48:51;;;;;;;1.13;0.73;;;12.90;99.90;;;;;;5034640;28;20029;-77
2023/12/25 01:51:22;;;;;;;1.48;0.55;;;12.90;99.90;;;;;;5035310;28;20033;-77
2023/12/25 01:53:49;;;;;;;3.20;0.80;;;12.90;99.90;;;;;;5033211;28;20490;-78
2023/12/25 01:56:15;;;;;;;2.28;1.45;;;12.90;99.90;;;;;;5034010;28;20049;-78
2023/12/25 01:58:41;;;;;;;2.97;0.60;;;12.90;99.90;;;;;;5031609;28;20013;-76
2023/12/25 02:01:06;;;;;;;1.25;0.60;;;13.00;99.90;;;;;;5032222;28;20102;-78
2023/12/25 02:03:32;;;;;;;2.67;0.65;;;13.00;99.90;;;;;;5033271;28;20037;-77
2023/12/25 02:05:59;;;;;;;1.48;0.93;;;13.00;99.90;;;;;;5031369;28;20057;-77
2023/12/25 02:08:25;;;;;;;2.17;0.68;;;12.90;99.90;;;;;;5033149;28;20595;-76
2023/12/25 02:10:51;;;;;;;1.48;0.40;;;13.00;99.90;;;;;;5031804;28;20032;-77
2023/12/25 02:13:17;;;;;;;2.42;0.68;;;13.00;99.90;;;;;;5031948;28;20025;-77
2023/12/25 02:15:44;;;;;;;0.60;0.38;;;13.00;99.90;;;;;;5031910;28;20040;-77
2023/12/25 02:18:09;;;;;;;1.42;0.55;;;13.00;99.90;;;;;;5035330;28;20486;-78
2023/12/25 02:20:35;;;;;;;1.52;0.45;;;12.90;99.90;;;;;;5038681;28;20047;-77
2023/12/25 02:23:05;;;;;;;1.17;0.60;;;13.00;99.90;;;;;;5032863;28;20104;-77
2023/12/25 02:25:33;;;;;;;0.43;0.28;;;13.00;99.90;;;;;;5035721;28;20482;-77
2023/12/25 02:28:00;;;;;;;2.47;0.50;;;13.10;99.90;;;;;;5037854;28;20024;-77
2023/12/25 02:30:27;;;;;;;0.45;0.35;;;13.10;99.90;;;;;;5042568;28;20194;-77
2023/12/25 02:32:52;;;;;;;2.33;0.73;;;13.00;99.90;;;;;;5036254;28;20482;-78
2023/12/25 02:35:18;;;;;;;0.52;0.40;;;13.10;99.90;;;;;;5033836;28;20023;-78
2023/12/25 02:37:44;;;;;;;0.77;0.38;;;13.00;99.90;;;;;;5035947;28;20064;-78
2023/12/25 02:40:10;;;;;;;2.22;0.50;;;13.00;99.90;;;;;;5037090;28;20056;-78
2023/12/25 02:42:36;;;;;;;0.60;0.50;;;13.00;99.90;;;;;;5039296;28;20124;-78
2023/12/25 02:45:02;;;;;;;0.35;0.35;;;13.10;99.90;;;;;;5038692;28;20100;-78
2023/12/25 02:47:28;;;;;;;0.88;0.52;;;13.00;99.90;;;;;;5038509;28;20022;-79
2023/12/25 02:49:53;;;;;;;1.38;0.50;;;13.00;99.90;;;;;;5038960;28;20029;-78
2023/12/25 02:52:19;;;;;;;0.80;0.60;;;13.00;99.90;;;;;;5035642;28;20032;-78
2023/12/25 02:54:45;;;;;;;0.70;0.50;;;13.10;99.90;;;;;;5034690;28;20078;-78
2023/12/25 02:57:11;;;;;;;0.93;0.60;;;13.10;99.90;;;;;;5039664;28;20443;-78
2023/12/25 02:59:37;;;;;;;1.75;0.93;;;13.10;99.90;;;;;;5036159;28;20025;-78
2023/12/25 03:02:03;;;;;;;1.92;0.90;;;13.00;99.90;;;;;;5036028;28;20037;-79
2023/12/25 03:04:29;;;;;;;1.38;0.88;;;13.10;99.90;;;;;;5038092;28;20013;-78
2023/12/25 03:06:55;;;;;;;1.52;0.90;;;13.10;99.90;;;;;;5037079;28;20017;-78
2023/12/25 03:09:20;;;;;;;1.75;1.45;;;13.10;99.90;;;;;;5037374;28;20543;-78
2023/12/25 03:11:46;;;;;;;2.45;1.40;;;13.10;99.90;;;;;;5036861;28;20040;-78
2023/12/25 03:14:12;;;;;;;4.18;1.50;;;13.10;99.90;;;;;;5035696;28;20017;-78
2023/12/25 03:16:38;;;;;;;4.18;1.83;;;13.10;99.90;;;;;;5034695;28;20029;-78
2023/12/25 03:19:04;;;;;;;2.67;1.65;;;13.00;99.90;;;;;;5033328;28;20087;-77
2023/12/25 03:21:29;;;;;;;2.08;1.58;;;13.10;99.90;;;;;;5037845;28;20098;-78
2023/12/25 03:23:55;;;;;;;2.97;1.30;;;13.10;99.90;;;;;;5033475;28;20452;-78
2023/12/25 03:26:22;;;;;;;1.95;1.00;;;13.20;99.90;;;;;;5035957;28;20465;-77
2023/12/25 03:28:48;;;;;;;2.88;1.60;;;13.10;99.90;;;;;;5034317;28;20470;-78
2023/12/25 03:31:14;;;;;;;7.07;2.35;;;13.10;99.90;;;;;;5036549;28;20025;-77
2023/12/25 03:33:39;;;;;;;6.07;1.80;;;13.10;99.90;;;;;;5032264;28;20488;-77
2023/12/25 03:36:07;;;;;;;3.97;1.88;;;13.10;99.90;;;;;;5034868;28;20974;-77
2023/12/25 03:38:33;;;;;;;1.90;1.67;;;13.10;99.90;;;;;;5037346;28;20094;-77
2023/12/25 03:41:00;;;;;;;2.42;1.25;;;13.10;99.90;;;;;;5035647;28;20024;-78
2023/12/25 03:43:26;;;;;;;3.10;1.30;;;13.10;99.90;;;;;;5034339;28;20045;-78
2023/12/25 03:45:52;;;;;;;5.60;1.90;;;13.10;99.90;;;;;;5037221;28;20067;-77
2023/12/25 03:48:20;;;;;;;2.63;1.42;;;13.10;99.90;;;;;;5034510;28;20036;-78
2023/12/25 03:50:46;;;;;;;2.95;1.23;;;13.20;99.90;;;;;;5034363;28;20388;-78
2023/12/25 03:53:11;;;;;;;2.55;1.40;;;13.20;99.90;;;;;;5033707;28;20026;-78
2023/12/25 03:55:37;;;;;;;2.10;1.35;;;13.10;99.90;;;;;;5037341;28;20029;-78
2023/12/25 03:58:03;;;;;;;2.58;1.45;;;13.10;99.90;;;;;;5034529;28;20017;-78
2023/12/25 04:00:29;;;;;;;5.05;1.52;;;13.20;99.90;;;;;;5035128;28;20040;-77
2023/12/25 04:02:56;;;;;;;5.75;1.90;;;13.20;99.90;;;;;;5036379;28;20017;-78
2023/12/25 04:05:23;;;;;;;4.95;2.47;;;13.20;99.90;;;;;;5038766;28;20490;-77
2023/12/25 04:07:50;;;;;;;2.25;1.52;;;13.10;99.90;;;;;;5036430;28;20017;-78
2023/12/25 04:10:16;;;;;;;3.63;1.60;;;13.20;99.90;;;;;;5035951;28;20037;-78
2023/12/25 04:12:42;;;;;;;4.03;1.60;;;13.20;99.90;;;;;;5034935;28;20104;-78
2023/12/25 04:15:08;;;;;;;2.78;1.70;;;13.30;99.90;;;;;;5036159;28;20506;-78
2023/12/25 04:17:34;;;;;;;5.25;1.70;;;13.20;99.90;;;;;;5036353;28;21010;-79
2023/12/25 04:20:00;;;;;;;2.05;1.42;;;13.30;99.90;;;;;;5038160;28;20176;-78
2023/12/25 04:22:26;;;;;;;1.85;1.60;;;13.20;99.90;;;;;;5037650;28;20038;-77
2023/12/25 04:24:51;;;;;;;4.45;1.88;;;13.20;99.90;;;;;;5037437;28;20037;-79
2023/12/25 04:27:18;;;;;;;3.22;1.58;;;13.20;99.90;;;;;;5039151;28;20385;-78
2023/12/25 04:29:44;;;;;;;1.80;1.65;;;13.20;99.90;;;;;;5042125;28;20071;-78
2023/12/25 04:32:10;;;;;;;2.05;1.02;;;13.20;99.90;;;;;;5044184;28;20100;-78
2023/12/25 04:34:36;;;;;;;3.28;1.15;;;13.10;99.90;;;;;;5050964;28;20117;-78
2023/12/25 04:37:02;;;;;;;0.80;0.80;;;13.10;99.90;;;;;;5046876;28;20429;-77
2023/12/25 04:39:28;;;;;;;1.75;1.10;;;13.20;99.90;;;;;;5040574;28;20032;-78
2023/12/25 04:41:53;;;;;;;2.63;1.02;;;13.20;99.90;;;;;;5043940;28;20032;-78
2023/12/25 04:44:19;;;;;;;1.58;0.85;;;13.20;99.90;;;;;;5053155;28;20129;-78
2023/12/25 04:46:45;;;;;;;1.00;0.90;;;13.20;99.90;;;;;;5050362;28;20025;-78
2023/12/25 04:49:10;;;;;;;0.90;0.80;;;13.10;99.90;;;;;;5043821;28;20024;-78
2023/12/25 04:51:36;;;;;;;2.00;0.68;;;13.10;99.90;;;;;;5052478;28;20033;-78
2023/12/25 04:54:02;;;;;;;0.73;0.70;;;13.10;99.90;;;;;;5043543;28;20080;-78
2023/12/25 04:56:28;;;;;;;0.50;0.50;;;13.10;99.90;;;;;;5052607;28;20531;-79
2023/12/25 04:58:53;;;;;;;0.43;0.30;;;13.10;99.90;;;;;;5038838;28;20030;-78
2023/12/25 05:01:19;;;;;;;0.30;0.30;;;13.10;99.90;;;;;;5039238;28;20078;-78
2023/12/25 05:03:45;;;;;;;0.20;0.20;;;13.00;99.90;;;;;;5038517;28;20372;-78
2023/12/25 05:06:10;;;;;;;0.50;0.50;;;13.10;99.90;;;;;;5039364;28;20104;-78
2023/12/25 05:08:36;;;;;;;0.20;0.20;;;13.00;99.90;;;;;;5042636;28;20025;-78
2023/12/25 05:11:02;;;;;;;0.30;0.30;;;13.10;99.90;;;;;;5041025;28;20104;-78
2023/12/25 05:13:28;;;;;;;0.15;0.15;;;13.00;99.90;;;;;;5045640;28;20437;-79
2023/12/25 05:15:53;;;;;;;0.28;0.28;;;13.00;99.90;;;;;;5039205;28;20037;-78
2023/12/25 05:18:19;;;;;;;0.28;0.22;;;13.00;99.90;;;;;;5039420;28;20078;-79
2023/12/25 05:20:44;;;;;;;0.52;0.20;;;13.00;99.90;;;;;;5040474;28;20478;-78
2023/12/25 05:23:10;;;;;;;1.17;0.30;;;13.00;99.90;;;;;;5043916;28;20356;-78
2023/12/25 05:25:36;;;;;;;0.10;0.10;;;13.00;99.90;;;;;;5045896;28;20370;-78
2023/12/25 05:28:01;;;;;;;0.73;0.30;;;13.00;99.90;;;;;;5045116;28;20121;-79
2023/12/25 05:30:27;;;;;;;0.30;0.30;;;13.00;99.90;;;;;;5039702;28;20510;-79
2023/12/25 05:32:53;;;;;;;0.35;0.28;;;12.90;99.90;;;;;;5039285;28;20079;-78
2023/12/25 05:35:18;;;;;;;0.30;0.30;;;12.80;99.90;;;;;;5045128;28;20104;-78
2023/12/25 05:37:44;;;;;;;0.40;0.20;;;12.80;99.90;;;;;;5035871;28;20026;-78
2023/12/25 05:40:11;;;;;;;0.40;0.40;;;12.80;99.90;;;;;;5039536;28;20355;-78
2023/12/25 05:42:37;;;;;;;0.22;0.22;;;12.80;99.90;;;;;;5045559;28;20106;-78
2023/12/25 05:45:02;;;;;;;0.73;0.30;;;12.80;99.90;;;;;;5047846;28;20064;-77
2023/12/25 05:47:28;;;;;;;1.52;0.32;;;12.80;99.90;;;;;;5044557;28;20028;-77
2023/12/25 05:49:54;;;;;;;1.15;0.30;;;12.80;99.90;;;;;;5042498;28;20475;-78
2023/12/25 05:52:19;;;;;;;0.30;0.30;;;12.80;99.90;;;;;;5043348;28;20380;-77
2023/12/25 05:54:45;;;;;;;0.38;0.38;;;12.80;99.90;;;;;;5041014;28;20047;-77
2023/12/25 05:57:11;;;;;;;0.40;0.40;;;12.90;99.90;;;;;;5045974;28;20371;-77
2023/12/25 05:59:37;;;;;;;0.30;0.30;;;12.90;99.90;;;;;;5049001;28;20024;-78
2023/12/25 06:02:04;;;;;;;0.45;0.30;;;12.80;99.90;;;;;;5045265;28;20488;-78
2023/12/25 06:04:30;;;;;;;2.97;0.40;;;12.80;99.90;;;;;;5047012;28;20031;-78
2023/12/25 06:06:55;;;;;;;0.20;0.20;;;12.90;99.90;;;;;;5047129;28;20104;-80
2023/12/25 06:09:21;;;;;;;1.50;0.30;;;12.90;99.90;;;;;;5038958;28;20033;-78
2023/12/25 06:11:47;;;;;;;0.35;0.20;;;12.80;99.90;;;;;;5039660;28;20486;-78
2023/12/25 06:14:13;;;;;;;2.92;0.20;;;12.90;99.90;;;;;;5049638;28;20021;-78
2023/12/25 06:16:39;;;;;;;0.30;0.20;;;12.80;99.90;;;;;;5044377;28;20014;-78
2023/12/25 06:19:05;;;;;;;0.20;0.20;;;12.80;99.90;;;;;;5042051;28;20029;-78
2023/12/25 06:21:30;;;;;;;0.93;0.32;;;12.80;99.90;;;;;;5044242;28;20091;-79
2023/12/25 06:23:56;;;;;;;0.40;0.30;;;12.80;99.90;;;;;;5043321;28;20037;-78
2023/12/25 06:26:22;;;;;;;0.20;0.20;;;12.80;99.90;;;;;;5047091;28;20108;-77
2023/12/25 06:28:48;;;;;;;0.50;0.50;;;12.80;99.90;;;;;;5049418;28;20036;-78
2023/12/25 06:31:14;;;;;;;0.88;0.77;;;12.80;99.90;;;;;;5045045;28;20025;-78
2023/12/25 06:33:40;;;;;;;2.25;0.60;;;12.90;99.90;;;;;;5040095;28;20021;-77
2023/12/25 06:36:06;;;;;;;0.50;0.40;;;12.90;99.90;;;;;;5043102;28;20094;-77
2023/12/25 06:38:32;;;;;;;0.52;0.50;;;12.80;99.90;;;;;;5050705;28;20034;-77
2023/12/25 06:40:57;;;;;;;0.32;0.32;;;12.90;99.90;;;;;;5042137;28;20197;-77
2023/12/25 06:43:23;;;;;;;0.57;0.57;;;12.90;99.90;;;;;;5042198;28;20022;-78
2023/12/25 06:45:49;;;;;;;0.88;0.55;;;12.90;99.90;;;;;;5047605;28;20025;-77
2023/12/25 06:48:14;;;;;;;0.95;0.50;;;12.90;99.90;;;;;;5047245;28;20382;-77
2023/12/25 06:50:40;;;;;;;1.75;0.65;;;12.90;99.90;;;;;;5047788;28;20111;-77
2023/12/25 06:53:07;;;;;;;0.82;0.82;;;12.90;99.90;;;;;;5038751;28;20092;-78
2023/12/25 06:55:33;;;;;;;0.95;0.50;;;12.80;99.90;;;;;;5041048;28;20052;-78
2023/12/25 06:57:59;;;;;;;0.52;0.30;;;12.80;99.90;;;;;;5045048;28;20481;-77
2023/12/25 07:00:24;;;;;;;0.60;0.50;;;12.80;99.90;;;;;;5040853;28;20037;-78
2023/12/25 07:02:53;;;;;;;0.80;0.73;;;12.90;99.90;;;;;;5039850;28;20061;-78
2023/12/25 07:05:19;;;;;;;0.50;0.50;;;12.80;99.90;;;;;;5041684;28;20051;-78
2023/12/25 07:07:45;;;;;;;1.35;0.50;;;12.90;99.90;;;;;;5054440;28;20035;-77
2023/12/25 07:10:11;;;;;;;0.50;0.50;;;12.90;99.90;;;;;;5040432;28;20029;-77
2023/12/25 07:12:36;;;;;;;1.30;0.30;;;12.90;99.90;;;;;;5043724;28;20022;-77
2023/12/25 07:15:02;;;;;;;0.60;0.60;;;12.90;99.90;;;;;;5048476;28;20029;-77
2023/12/25 07:17:28;;;;;;;1.27;0.50;;;12.90;99.90;;;;;;5044552;28;21255;-78
2023/12/25 07:19:53;;;;;;;0.98;0.60;;;12.80;99.90;;;;;;5041471;28;20108;-78
2023/12/25 07:22:19;;;;;;;0.40;0.40;;;12.90;99.90;;;;;;5043476;28;20044;-78
2023/12/25 07:24:45;;;;;;;0.40;0.40;;;12.90;99.90;;;;;;5045122;28;20079;-77
2023/12/25 07:27:10;;;;;;;0.50;0.50;;;12.90;99.90;;;;;;5047991;28;20103;-77
2023/12/25 07:29:36;;;;;;;0.45;0.30;;;12.90;99.90;;;;;;5042866;28;20100;-78
2023/12/25 07:32:02;;;;;;;0.77;0.50;;;12.80;99.90;;;;;;5049034;28;20029;-78
2023/12/25 07:34:28;;;;;;;1.45;0.60;;;12.80;99.90;;;;;;5051561;28;20489;-77
2023/12/25 07:36:54;;;;;;;3.30;0.60;;;12.80;99.90;;;;;;5044935;28;20075;-77
2023/12/25 07:39:20;;;;;;;1.10;0.60;;;12.90;99.90;;;;;;5046232;28;20075;-77
2023/12/25 07:41:46;;;;;;;0.95;0.40;;;12.90;99.90;;;;;;5041954;28;20351;-78
2023/12/25 07:44:16;;;;;;;0.40;0.40;;;12.90;99.90;;;;;;5050245;28;20021;-77
2023/12/25 07:46:42;;;;;;;0.40;0.40;;;12.90;99.90;;;;;;5048220;28;20037;-78
2023/12/25 07:49:07;;;;;;;0.50;0.30;;;12.90;99.90;;;;;;5043311;28;20484;-78
2023/12/25 07:51:33;;;;;;;0.77;0.30;;;12.90;99.90;;;;;;5043623;28;20596;-78
2023/12/25 07:53:59;;;;;;;0.63;0.50;;;12.90;99.90;;;;;;5049531;28;20466;-79
2023/12/25 07:56:25;;;;;;;0.55;0.45;;;12.90;99.90;;;;;;5044538;28;20489;-78
2023/12/25 07:58:50;;;;;;;0.40;0.40;;;12.90;99.90;;;;;;5049501;28;20458;-78
2023/12/25 08:01:20;;;;;;;0.90;0.50;;;13.00;99.90;;;;;;5047071;28;20052;-79
2023/12/25 08:03:45;;;;;;;0.65;0.50;;;12.90;99.90;;;;;;5054105;28;20031;-78
2023/12/25 08:06:11;;;;;;;0.40;0.40;;;12.90;99.90;;;;;;5041619;28;20033;-78
2023/12/25 08:08:37;;;;;;;1.15;0.68;;;13.00;99.90;;;;;;5041048;28;20398;-79
2023/12/25 08:11:03;;;;;;;1.80;0.60;;;12.90;99.90;;;;;;5047010;28;20022;-78
2023/12/25 08:13:29;;;;;;;1.33;0.50;;;12.90;99.90;;;;;;5042057;28;20056;-79
2023/12/25 08:15:54;;;;;;;2.88;0.85;;;13.00;99.90;;;;;;5042404;28;20028;-78
2023/12/25 08:18:20;;;;;;;1.42;0.77;;;13.00;99.90;;;;;;5046442;28;20021;-79
2023/12/25 08:20:46;;;;;;;0.63;0.60;;;13.00;99.90;;;;;;5050658;28;20077;-78
2023/12/25 08:23:12;;;;;;;0.60;0.60;;;13.00;99.90;;;;;;5045737;28;20028;-79
2023/12/25 08:25:38;;;;;;;0.52;0.50;;;13.10;99.90;;;;;;5040631;28;20115;-79
2023/12/25 08:28:07;;;;;;;1.45;0.60;;;13.00;99.90;;;;;;5041309;28;20017;-79
2023/12/25 08:30:37;;;;;;;2.75;0.50;;;13.00;99.90;;;;;;5039097;28;20025;-80
2023/12/25 08:33:08;;;;;;;1.55;0.57;;;13.00;99.90;;;;;;5051574;28;20107;-79
2023/12/25 08:35:33;;;;;;;1.67;0.70;;;13.00;99.90;;;;;;5043833;28;20017;-78
2023/12/25 08:37:59;;;;;;;1.00;0.70;;;13.00;99.90;;;;;;5040826;28;20125;-79
2023/12/25 08:40:25;;;;;;;0.43;0.43;;;13.10;99.90;;;;;;5045659;28;20036;-78
2023/12/25 08:42:51;;;;;;;0.40;0.40;;;13.10;99.90;;;;;;5041732;28;20494;-78
2023/12/25 08:45:17;;;;;;;1.58;0.50;;;13.00;99.90;;;;;;5043505;28;20063;-79
2023/12/25 08:47:43;;;;;;;0.50;0.50;;;13.00;99.90;;;;;;5049544;28;20543;-79
2023/12/25 08:50:09;;;;;;;0.40;0.40;;;13.00;99.90;;;;;;5042147;28;20079;-80
2023/12/25 08:52:35;;;;;;;0.40;0.40;;;13.10;99.90;;;;;;5041969;28;20033;-79
2023/12/25 08:55:01;;;;;;;0.50;0.40;;;13.10;99.90;;;;;;5048439;28;20033;-77
2023/12/25 08:57:27;;;;;;;1.10;1.10;;;13.00;99.90;;;;;;5041416;28;20410;-78
2023/12/25 08:59:53;;;;;;;0.90;0.70;;;13.00;99.90;;;;;;5049384;28;20033;-77
2023/12/25 09:02:21;;;;;;;0.55;0.50;;;13.10;99.90;;;;;;5040302;28;20482;-79
2023/12/25 09:04:50;;;;;;;0.60;0.60;;;13.10;99.90;;;;;;5044105;28;20021;-77
2023/12/25 09:07:16;;;;;;;0.40;0.40;;;13.10;99.90;;;;;;5036560;28;20394;-78
2023/12/25 09:09:45;;;;;;;0.20;0.20;;;13.10;99.90;;;;;;5045344;28;20084;-79
2023/12/25 09:12:11;;;;;;;1.17;0.50;;;13.10;99.90;;;;;;5043717;28;20021;-79
2023/12/25 09:14:37;;;;;;;0.70;0.40;;;13.10;99.90;;;;;;5046711;28;20028;-78
2023/12/25 09:17:02;;;;;;;0.40;0.40;;;13.20;99.90;;;;;;5042087;28;20033;-77
2023/12/25 09:19:28;;;;;;;0.45;0.40;;;13.20;99.90;;;;;;5042926;28;20055;-81
2023/12/25 09:21:54;;;;;;;0.50;0.50;;;13.10;99.90;;;;;;5048965;28;20102;-79
2023/12/25 09:24:20;;;;;;;0.73;0.60;;;13.10;99.90;;;;;;5042451;28;20424;-78
2023/12/25 09:26:47;;;;;;;0.30;0.30;;;13.10;99.90;;;;;;5040539;28;20030;-79
2023/12/25 09:29:14;;;;;;;0.63;0.40;;;13.20;99.90;;;;;;5048967;28;20021;-80
2023/12/25 09:31:40;;;;;;;0.85;0.30;;;13.10;99.90;;;;;;5047597;28;20025;-78
2023/12/25 09:34:06;;;;;;;0.70;0.50;;;13.10;99.90;;;;;;5037221;28;20043;-78
2023/12/25 09:36:31;;;;;;;1.25;0.68;;;13.10;99.90;;;;;;5048169;28;20529;-78
2023/12/25 09:38:57;;;;;;;2.50;0.50;;;13.10;99.90;;;;;;5048364;28;20393;-78
2023/12/25 09:41:24;;;;;;;0.90;0.30;;;13.00;99.90;;;;;;5035369;28;20053;-80
2023/12/25 09:43:53;;;;;;;0.88;0.50;;;13.10;99.90;;;;;;5043380;28;20029;-80
2023/12/25 09:46:19;;;;;;;0.70;0.68;;;13.10;99.90;;;;;;5044942;28;20020;-81
2023/12/25 09:48:47;;;;;;;0.55;0.50;;;13.00;99.90;;;;;;5051271;28;20025;-82
2023/12/25 09:51:18;;;;;;;0.47;0.40;;;13.10;99.90;;;;;;5037873;28;20402;-78
2023/12/25 09:53:44;;;;;;;0.40;0.40;;;13.00;99.90;;;;;;5043625;28;20020;-80
2023/12/25 09:56:12;;;;;;;0.73;0.70;;;13.10;99.90;;;;;;5044395;28;20516;-79
2023/12/25 09:58:40;;;;;;;0.50;0.50;;;13.10;99.90;;;;;;5038437;28;20433;-81
2023/12/25 10:01:06;;;;;;;0.90;0.63;;;13.10;99.90;;;;;;5037994;28;20033;-80
2023/12/25 10:03:33;;;;;;;1.13;0.80;;;13.10;99.90;;;;;;5044583;28;20100;-79
2023/12/25 10:05:59;;;;;;;0.70;0.70;;;13.10;99.90;;;;;;5046448;28;20070;-79
2023/12/25 10:08:27;;;;;;;1.02;1.00;;;13.10;99.90;;;;;;5044541;28;20037;-79
2023/12/25 10:10:55;;;;;;;2.25;1.10;;;13.10;99.90;;;;;;5038653;28;20556;-80
2023/12/25 10:13:28;;;;;;;4.45;1.75;;;13.20;99.90;;;;;;5044021;28;20028;-78
2023/12/25 10:15:54;;;;;;;1.10;1.00;;;13.20;99.90;;;;;;5039225;28;20074;-78
2023/12/25 10:18:20;;;;;;;1.20;1.10;;;13.20;99.90;;;;;;5043948;28;20029;-80
2023/12/25 10:20:56;;;;;;;1.67;1.38;;;13.20;99.90;;;;;;5046106;28;20033;-79
2023/12/25 10:23:34;;;;;;;1.63;1.40;;;13.30;99.90;;;;;;5048129;28;20083;-79
2023/12/25 10:26:02;;;;;;;1.33;1.23;;;13.30;99.90;;;;;;5047494;28;20026;-81
2023/12/25 10:28:32;;;;;;;5.78;0.90;;;13.20;99.90;;;;;;5044827;28;20022;-82
2023/12/25 10:31:06;;;;;;;1.48;0.85;;;13.30;99.90;;;;;;5038959;28;20029;-80
2023/12/25 10:33:33;;;;;;;0.80;0.80;;;13.30;99.90;;;;;;5038841;28;20029;-77
2023/12/25 10:36:07;;;;;;;1.05;0.95;;;13.30;99.90;;;;;;5040448;28;20022;-78
2023/12/25 10:38:35;;;;;;;0.73;0.73;;;13.30;99.90;;;;;;5041218;28;20040;-77
2023/12/25 10:41:24;;;;;;;1.30;1.00;;;13.30;99.90;;;;;;5042330;28;20408;-78
2023/12/25 10:43:57;;;;;;;0.80;0.80;;;13.40;99.90;;;;;;5047733;28;20022;-77
2023/12/25 10:46:25;;;;;;;1.92;1.00;;;13.30;99.90;;;;;;5042976;28;20426;-79
2023/12/25 10:48:53;;;;;;;1.60;0.98;;;13.40;99.90;;;;;;5044624;28;20048;-78
2023/12/25 10:51:35;;;;;;;1.17;1.02;;;13.40;99.90;;;;;;5055460;28;20444;-79
2023/12/25 10:54:06;;;;;;;1.33;1.23;;;13.40;99.90;;;;;;5047985;28;20052;-77
2023/12/25 10:56:34;;;;;;;1.45;1.10;;;13.40;99.90;;;;;;5048969;28;20537;-81
2023/12/25 10:59:14;;;;;;;1.00;0.90;;;13.50;99.90;;;;;;5039609;28;20021;-77
2023/12/25 11:01:45;;;;;;;1.63;1.45;;;13.50;99.90;;;;;;5044721;28;20039;-76
2023/12/25 11:04:14;;;;;;;1.52;1.42;;;13.50;99.90;;;;;;5046908;28;20021;-80
2023/12/25 11:06:40;;;;;;;2.75;1.33;;;13.50;99.90;;;;;;5043479;28;20118;-77
2023/12/25 11:09:06;;;;;;;1.40;1.30;;;13.50;99.90;;;;;;5043335;28;20025;-77
2023/12/25 11:11:32;;;;;;;2.83;1.00;;;13.50;99.90;;;;;;5045943;28;20564;-79
2023/12/25 11:13:57;;;;;;;0.90;0.90;;;13.50;99.90;;;;;;5041455;28;20152;-78
2023/12/25 11:16:23;;;;;;;1.67;1.13;;;13.50;99.90;;;;;;5043862;28;20109;-77
2023/12/25 11:18:49;;;;;;;1.23;1.10;;;13.50;99.90;;;;;;5048339;28;20104;-78
2023/12/25 11:21:19;;;;;;;1.50;1.05;;;13.50;99.90;;;;;;5044348;28;20394;-77
2023/12/25 11:23:48;;;;;;;1.15;1.05;;;13.50;99.90;;;;;;5046769;28;20443;-78
2023/12/25 11:26:16;;;;;;;1.70;1.17;;;13.50;99.90;;;;;;5050031;28;20021;-76
2023/12/25 11:28:54;;;;;;;1.15;1.10;;;13.50;99.90;;;;;;5048038;28;20025;-77
2023/12/25 11:31:22;;;;;;;1.73;1.13;;;13.50;99.90;;;;;;5041280;28;20021;-78
2023/12/25 11:33:48;;;;;;;1.40;1.30;;;13.50;99.90;;;;;;5051091;28;20121;-77
2023/12/25 11:36:15;;;;;;;2.17;1.38;;;13.60;99.90;;;;;;5043083;28;20021;-77
2023/12/25 11:38:45;;;;;;;1.13;1.00;;;13.50;99.90;;;;;;5045141;28;20569;-77
2023/12/25 11:41:20;;;;;;;1.30;1.20;;;13.50;99.90;;;;;;5048656;28;20390;-77
2023/12/25 11:43:47;;;;;;;1.30;1.20;;;13.50;99.90;;;;;;5039689;28;20026;-76
2023/12/25 11:46:15;;;;;;;1.30;1.15;;;13.40;99.90;;;;;;5039300;28;20064;-77
2023/12/25 11:48:45;;;;;;;1.40;1.30;;;13.50;99.90;;;;;;5043724;28;20017;-77
2023/12/25 11:51:22;;;;;;;2.75;1.30;;;13.50;99.90;;;;;;5047738;28;20029;-77
2023/12/25 11:53:50;;;;;;;1.20;1.10;;;13.50;99.90;;;;;;5041916;28;20112;-77
2023/12/25 11:56:17;;;;;;;1.38;1.27;;;13.50;99.90;;;;;;5046654;28;20496;-77
2023/12/25 11:58:44;;;;;;;1.58;1.35;;;13.50;99.90;;;;;;5046240;28;20028;-77
2023/12/25 12:01:19;;;;;;;1.40;1.30;;;13.50;99.90;;;;;;5048236;28;20033;-76
2023/12/25 12:03:47;;;;;;;1.75;1.10;;;13.50;99.90;;;;;;5049471;28;20125;-76
2023/12/25 12:06:18;;;;;;;1.70;1.60;;;13.50;99.90;;;;;;5046520;28;20079;-76
2023/12/25 12:08:44;;;;;;;2.08;1.88;;;13.60;99.90;;;;;;5042493;28;20029;-77
2023/12/25 12:11:14;;;;;;;2.00;1.50;;;13.50;99.90;;;;;;5043856;28;20500;-78
2023/12/25 12:13:41;;;;;;;1.33;1.23;;;13.50;99.90;;;;;;5044675;28;20022;-78
2023/12/25 12:16:07;;;;;;;2.08;1.67;;;13.50;99.90;;;;;;5045517;28;20279;-78
2023/12/25 12:18:33;;;;;;;1.83;1.73;;;13.60;99.90;;;;;;5047291;28;20047;-77
2023/12/25 12:20:59;;;;;;;1.95;1.85;;;13.60;99.90;;;;;;5049219;28;20044;-77
2023/12/25 12:23:30;;;;;;;2.35;2.05;;;13.60;99.90;;;;;;5042659;28;20470;-77
2023/12/25 12:25:57;;;;;;;2.78;1.80;;;13.60;99.90;;;;;;5050345;28;20104;-79
2023/12/25 12:28:22;;;;;;;2.58;2.33;;;13.50;99.90;;;;;;5051776;28;20032;-78
2023/12/25 12:30:48;;;;;;;2.08;1.98;;;13.60;99.90;;;;;;5050508;28;20017;-77
2023/12/25 12:33:15;;;;;;;2.47;1.98;;;13.60;99.90;;;;;;5043116;28;20103;-79
2023/12/25 12:35:41;;;;;;;3.58;2.40;;;13.60;99.90;;;;;;5035715;28;20018;-78
2023/12/25 12:38:07;;;;;;;2.70;2.20;;;13.60;99.90;;;;;;5041991;28;20170;-80
2023/12/25 12:40:33;;;;;;;2.40;2.20;;;13.50;99.90;;;;;;5041546;28;20029;-79
2023/12/25 12:42:59;;;;;;;2.50;2.30;;;13.60;99.90;;;;;;5052169;28;20055;-78
2023/12/25 12:45:24;;;;;;;2.65;2.15;;;13.50;99.90;;;;;;5050480;28;20469;-80